createdAt,value
2023-04-13T00:00:37.223Z,0.90
2023-04-13T00:03:39.730Z,0.90
2023-04-13T00:06:42.928Z,1.20
2023-04-13T00:09:47.603Z,1.15
2023-04-13T00:12:50.135Z,1.20
2023-04-13T00:15:51.551Z,1.10
2023-04-13T00:18:52.825Z,1.00
2023-04-13T00:21:54.075Z,1.05
2023-04-13T00:24:55.760Z,1.00
2023-04-13T00:27:56.735Z,1.17
2023-04-13T00:30:57.731Z,1.45
2023-04-13T00:33:59.263Z,1.30
2023-04-13T00:37:02.443Z,1.30
2023-04-13T00:40:06.406Z,0.95
2023-04-13T00:43:07.269Z,1.10
2023-04-13T00:46:09.295Z,1.00
2023-04-13T00:49:12.867Z,0.85
2023-04-13T00:52:16.299Z,0.90
2023-04-13T00:55:21.641Z,1.02
2023-04-13T00:58:23.150Z,0.80
2023-04-13T01:01:24.312Z,1.30
2023-04-13T01:04:34.025Z,1.10
2023-04-13T01:08:01.848Z,1.20
2023-04-13T01:11:18.992Z,0.90
2023-04-13T01:14:37.786Z,1.02
2023-04-13T01:17:52.464Z,1.00
2023-04-13T01:21:01.228Z,0.90
2023-04-13T01:24:32.610Z,1.20
2023-04-13T01:27:50.944Z,1.30
2023-04-13T01:30:54.322Z,1.17
2023-04-13T01:33:57.153Z,1.08
2023-04-13T01:36:58.852Z,1.00
2023-04-13T01:40:00.301Z,0.90
2023-04-13T01:43:13.101Z,1.10
2023-04-13T01:46:29.157Z,0.85
2023-04-13T01:49:37.706Z,0.90
2023-04-13T01:52:48.243Z,1.30
2023-04-13T01:55:50.576Z,1.42
2023-04-13T01:58:59.027Z,1.10
2023-04-13T02:02:01.931Z,1.08
2023-04-13T02:05:03.985Z,1.20
2023-04-13T02:08:09.638Z,0.88
2023-04-13T02:11:16.441Z,1.17
2023-04-13T02:14:17.291Z,1.50
2023-04-13T02:17:18.929Z,1.00
2023-04-13T02:20:20.336Z,1.10
2023-04-13T02:23:21.602Z,0.95
2023-04-13T02:26:23.591Z,1.20
2023-04-13T02:29:24.541Z,1.33
2023-04-13T02:32:25.415Z,1.25
2023-04-13T02:35:27.625Z,1.10
2023-04-13T02:38:29.051Z,1.00
2023-04-13T02:41:35.397Z,1.00
2023-04-13T02:44:38.850Z,1.00
2023-04-13T02:47:40.529Z,1.08
2023-04-13T02:50:41.772Z,1.30
2023-04-13T02:53:48.959Z,1.00
2023-04-13T02:56:49.835Z,1.17
2023-04-13T02:59:51.826Z,1.27
2023-04-13T03:02:54.966Z,1.10
2023-04-13T03:05:58.961Z,1.23
2023-04-13T03:09:12.305Z,1.10
2023-04-13T03:12:20.428Z,1.27
2023-04-13T03:15:24.232Z,1.13
2023-04-13T03:18:25.318Z,1.00
2023-04-13T03:21:26.235Z,1.25
2023-04-13T03:24:47.565Z,1.00
2023-04-13T03:27:56.585Z,1.90
2023-04-13T03:30:59.711Z,1.10
2023-04-13T03:34:02.193Z,1.10
2023-04-13T03:37:03.715Z,0.90
2023-04-13T03:40:06.388Z,1.48
2023-04-13T03:43:16.465Z,1.08
2023-04-13T03:46:23.481Z,1.05
2023-04-13T03:49:25.430Z,1.13
2023-04-13T03:52:26.761Z,1.08
2023-04-13T03:55:33.192Z,1.35
2023-04-13T03:58:39.836Z,1.27
2023-04-13T04:01:41.359Z,2.17
2023-04-13T04:04:43.322Z,1.10
2023-04-13T04:07:45.499Z,1.33
2023-04-13T04:10:46.538Z,1.20
2023-04-13T04:13:49.177Z,1.20
2023-04-13T04:16:50.482Z,1.27
2023-04-13T04:19:53.407Z,1.20
2023-04-13T04:23:01.298Z,1.08
2023-04-13T04:26:07.823Z,1.10
2023-04-13T04:29:35.536Z,0.98
2023-04-13T04:32:46.306Z,1.42
2023-04-13T04:35:51.941Z,1.10
2023-04-13T04:39:03.055Z,1.20
2023-04-13T04:42:11.077Z,0.98
2023-04-13T04:45:15.315Z,1.30
2023-04-13T04:48:20.627Z,1.37
2023-04-13T04:51:25.218Z,1.25
2023-04-13T04:54:26.920Z,1.40
2023-04-13T04:57:29.652Z,1.45
2023-04-13T05:00:31.825Z,1.17
2023-04-13T05:03:45.531Z,1.70
2023-04-13T05:07:07.818Z,6.78
2023-04-13T05:10:12.703Z,4.50
2023-04-13T05:16:34.769Z,1.30
2023-04-13T05:19:47.874Z,1.70
2023-04-13T05:22:57.990Z,1.80
2023-04-13T05:25:59.132Z,2.42
2023-04-13T05:29:00.787Z,2.75
2023-04-13T05:32:07.375Z,1.77
2023-04-13T05:35:10.452Z,1.50
2023-04-13T05:38:11.683Z,1.52
2023-04-13T05:41:13.313Z,1.73
2023-04-13T05:44:14.637Z,1.52
2023-04-13T05:47:16.070Z,1.58
2023-04-13T05:50:20.555Z,1.40
2023-04-13T05:53:21.772Z,1.73
2023-04-13T05:56:29.928Z,1.23
2023-04-13T05:59:33.411Z,1.65
2023-04-13T06:02:40.553Z,1.40
2023-04-13T06:05:46.221Z,2.75
2023-04-13T06:08:49.738Z,1.10
2023-04-13T06:11:51.095Z,2.17
2023-04-13T06:14:52.948Z,1.48
2023-04-13T06:17:54.097Z,1.70
2023-04-13T06:20:57.409Z,1.40
2023-04-13T06:23:58.416Z,1.20
2023-04-13T06:27:04.734Z,1.20
2023-04-13T06:30:07.435Z,1.23
2023-04-13T06:33:09.664Z,1.85
2023-04-13T06:36:12.062Z,1.20
2023-04-13T06:39:14.313Z,1.23
2023-04-13T06:42:19.845Z,1.48
2023-04-13T06:45:33.937Z,1.40
2023-04-13T06:51:42.192Z,1.90
2023-04-13T06:54:43.208Z,2.15
2023-04-13T06:57:56.314Z,1.63
2023-04-13T07:00:57.091Z,1.67
2023-04-13T07:04:02.701Z,1.42
2023-04-13T07:07:06.213Z,1.20
2023-04-13T07:10:08.359Z,1.30
2023-04-13T07:13:10.076Z,1.20
2023-04-13T07:16:12.514Z,1.40
2023-04-13T07:19:20.666Z,1.77
2023-04-13T07:22:22.415Z,1.25
2023-04-13T07:25:25.702Z,1.33
2023-04-13T07:28:27.576Z,1.40
2023-04-13T07:31:31.620Z,1.13
2023-04-13T07:34:32.818Z,1.55
2023-04-13T07:37:34.525Z,1.23
2023-04-13T07:40:36.344Z,1.15
2023-04-13T07:43:44.311Z,1.67
2023-04-13T07:46:45.365Z,1.63
2023-04-13T07:49:46.930Z,1.10
2023-04-13T07:52:52.992Z,1.40
2023-04-13T07:55:57.065Z,1.42
2023-04-13T07:58:59.757Z,1.50
2023-04-13T08:02:01.169Z,1.92
2023-04-13T08:05:05.717Z,1.20
2023-04-13T08:08:07.212Z,1.33
2023-04-13T08:11:08.903Z,2.60
2023-04-13T08:14:11.936Z,1.40
2023-04-13T08:17:15.172Z,1.70
2023-04-13T08:20:16.649Z,1.40
2023-04-13T08:23:18.489Z,1.10
2023-04-13T08:26:21.016Z,1.25
2023-04-13T08:29:24.351Z,1.20
2023-04-13T08:32:26.801Z,1.42
2023-04-13T08:35:27.978Z,1.10
2023-04-13T08:38:29.836Z,1.30
2023-04-13T08:41:35.690Z,1.10
2023-04-13T08:44:43.285Z,1.80
2023-04-13T08:50:47.814Z,1.10
2023-04-13T08:53:48.994Z,1.17
2023-04-13T09:00:00.465Z,1.35
2023-04-13T09:03:09.535Z,1.60
2023-04-13T09:06:26.188Z,1.23
2023-04-13T09:09:28.279Z,1.88
2023-04-13T09:12:32.374Z,1.95
2023-04-13T09:15:33.996Z,1.65
2023-04-13T09:18:59.063Z,1.85
2023-04-13T09:22:11.930Z,1.20
2023-04-13T09:25:29.511Z,1.85
2023-04-13T09:28:30.952Z,1.30
2023-04-13T09:31:35.213Z,1.40
2023-04-13T09:34:36.368Z,1.20
2023-04-13T09:37:44.677Z,1.33
2023-04-13T09:40:51.814Z,1.05
2023-04-13T09:43:52.930Z,1.45
2023-04-13T09:47:02.275Z,1.17
2023-04-13T09:50:05.676Z,1.33
2023-04-13T09:53:10.987Z,1.75
2023-04-13T09:56:12.389Z,2.22
2023-04-13T09:59:14.341Z,2.08
2023-04-13T10:02:22.229Z,1.23
2023-04-13T10:05:28.878Z,1.40
2023-04-13T10:08:38.089Z,1.05
2023-04-13T10:11:47.074Z,0.95
2023-04-13T10:14:50.849Z,1.08
2023-04-13T10:18:19.623Z,1.25
2023-04-13T10:21:20.989Z,1.27
2023-04-13T10:24:24.772Z,1.42
2023-04-13T10:27:28.862Z,1.45
2023-04-13T10:30:29.905Z,1.67
2023-04-13T10:33:31.908Z,1.25
2023-04-13T10:36:39.649Z,1.48
2023-04-13T10:39:41.069Z,1.30
2023-04-13T10:42:52.963Z,1.20
2023-04-13T10:46:06.786Z,1.33
2023-04-13T10:49:08.509Z,1.30
2023-04-13T10:52:11.356Z,1.83
2023-04-13T10:55:14.914Z,1.05
2023-04-13T10:58:18.554Z,1.45
2023-04-13T11:01:19.988Z,1.27
2023-04-13T11:04:22.911Z,1.60
2023-04-13T11:07:26.333Z,1.08
2023-04-13T11:10:29.011Z,1.85
2023-04-13T11:13:30.744Z,1.65
2023-04-13T11:16:32.077Z,1.30
2023-04-13T11:19:33.057Z,1.40
2023-04-13T11:22:36.601Z,1.70
2023-04-13T11:25:37.886Z,1.45
2023-04-13T11:28:42.711Z,1.63
2023-04-13T11:31:43.960Z,1.50
2023-04-13T11:34:45.472Z,1.48
2023-04-13T11:37:53.214Z,1.85
2023-04-13T11:41:15.719Z,1.40
2023-04-13T11:44:17.948Z,1.40
2023-04-13T11:47:19.025Z,1.63
2023-04-13T11:50:22.644Z,1.10
2023-04-13T11:53:24.140Z,1.30
2023-04-13T11:56:26.187Z,1.40
2023-04-13T11:59:29.149Z,1.65
2023-04-13T12:02:40.093Z,1.55
2023-04-13T12:05:48.854Z,1.30
2023-04-13T12:08:55.748Z,1.30
2023-04-13T12:12:34.554Z,1.40
2023-04-13T12:15:42.844Z,1.60
2023-04-13T12:18:47.466Z,1.55
2023-04-13T12:21:57.247Z,1.20
2023-04-13T12:24:59.443Z,1.25
2023-04-13T12:28:00.950Z,1.83
2023-04-13T12:31:08.323Z,1.33
2023-04-13T12:37:13.659Z,1.40
2023-04-13T12:40:17.275Z,1.40
2023-04-13T12:43:18.391Z,1.30
2023-04-13T12:46:20.663Z,1.80
2023-04-13T12:49:21.964Z,1.40
2023-04-13T12:52:23.360Z,1.52
2023-04-13T12:55:24.086Z,1.63
2023-04-13T12:58:25.060Z,2.22
2023-04-13T13:01:26.734Z,1.33
2023-04-13T13:04:30.449Z,1.58
2023-04-13T13:07:31.886Z,1.40
2023-04-13T13:10:33.033Z,1.17
2023-04-13T13:13:34.148Z,1.45
2023-04-13T13:16:35.205Z,1.40
2023-04-13T13:19:36.446Z,1.15
2023-04-13T13:22:37.701Z,1.17
2023-04-13T13:25:42.394Z,1.40
2023-04-13T13:28:44.883Z,1.30
2023-04-13T13:31:46.133Z,1.60
2023-04-13T13:34:47.394Z,1.05
2023-04-13T13:37:48.568Z,1.40
2023-04-13T13:40:49.981Z,2.10
2023-04-13T13:43:50.737Z,1.45
2023-04-13T13:46:52.059Z,1.60
2023-04-13T13:49:55.493Z,1.80
2023-04-13T13:53:05.883Z,1.40
2023-04-13T13:56:13.299Z,1.25
2023-04-13T13:59:14.534Z,1.55
2023-04-13T14:02:15.922Z,1.70
2023-04-13T14:05:17.894Z,1.30
2023-04-13T14:08:19.096Z,1.38
2023-04-13T14:11:20.210Z,1.30
2023-04-13T14:14:22.693Z,1.58
2023-04-13T14:17:24.478Z,1.50
2023-04-13T14:20:26.085Z,1.23
2023-04-13T14:23:27.294Z,1.52
2023-04-13T14:26:28.704Z,1.13
2023-04-13T14:29:29.948Z,2.40
2023-04-13T14:32:31.970Z,1.10
2023-04-13T14:35:33.841Z,1.27
2023-04-13T14:38:35.569Z,1.48
2023-04-13T14:41:36.818Z,1.38
2023-04-13T14:44:38.564Z,1.42
2023-04-13T14:47:40.327Z,1.70
2023-04-13T14:50:41.478Z,1.20
2023-04-13T14:53:42.395Z,2.00
2023-04-13T14:56:43.547Z,1.30
2023-04-13T14:59:45.133Z,1.75
2023-04-13T15:02:46.550Z,1.30
2023-04-13T15:05:48.618Z,1.35
2023-04-13T15:08:49.762Z,1.50
2023-04-13T15:11:52.253Z,1.98
2023-04-13T15:14:53.344Z,0.80
2023-04-13T15:17:54.872Z,1.25
2023-04-13T15:20:56.128Z,1.00
2023-04-13T15:23:57.013Z,0.80
2023-04-13T15:26:57.964Z,1.20
2023-04-13T15:30:00.369Z,0.90
2023-04-13T15:33:03.170Z,1.00
2023-04-13T15:36:05.237Z,0.80
2023-04-13T15:39:06.512Z,1.10
2023-04-13T15:42:07.911Z,0.73
2023-04-13T15:45:09.772Z,0.85
2023-04-13T15:48:11.385Z,0.70
2023-04-13T15:51:12.520Z,0.75
2023-04-13T15:54:13.759Z,0.80
2023-04-13T15:57:16.912Z,0.90
2023-04-13T16:00:18.541Z,0.70
2023-04-13T16:03:19.593Z,0.90
2023-04-13T16:06:21.028Z,0.80
2023-04-13T16:09:21.809Z,1.00
2023-04-13T16:12:32.693Z,0.80
2023-04-13T16:15:33.778Z,0.70
2023-04-13T16:18:36.071Z,1.00
2023-04-13T16:21:38.088Z,0.82
2023-04-13T16:24:39.913Z,0.90
2023-04-13T16:27:44.466Z,0.80
2023-04-13T16:30:45.494Z,0.88
2023-04-13T16:33:46.856Z,0.70
2023-04-13T16:36:48.608Z,0.98
2023-04-13T16:39:49.829Z,0.82
2023-04-13T16:42:52.058Z,0.90
2023-04-13T16:45:53.281Z,0.90
2023-04-13T16:48:54.545Z,0.70
2023-04-13T16:51:55.508Z,0.80
2023-04-13T16:54:56.524Z,0.73
2023-04-13T16:57:58.048Z,0.90
2023-04-13T17:00:59.093Z,0.80
2023-04-13T17:04:00.028Z,0.80
2023-04-13T17:07:04.756Z,0.88
2023-04-13T17:10:07.965Z,0.90
2023-04-13T17:13:09.095Z,0.93
2023-04-13T17:16:10.477Z,0.73
2023-04-13T17:19:11.534Z,0.80
2023-04-13T17:22:13.293Z,0.95
2023-04-13T17:25:14.668Z,0.88
2023-04-13T17:28:16.384Z,0.80
2023-04-13T17:31:17.199Z,0.80
2023-04-13T17:34:18.566Z,0.80
2023-04-13T17:37:19.603Z,0.75
2023-04-13T17:40:20.892Z,1.15
2023-04-13T17:43:22.213Z,1.25
2023-04-13T17:46:23.347Z,1.40
2023-04-13T17:49:26.361Z,1.15
2023-04-13T17:52:27.477Z,1.42
2023-04-13T17:55:28.447Z,1.25
2023-04-13T17:58:29.800Z,1.15
2023-04-13T18:01:31.202Z,1.55
2023-04-13T18:04:32.980Z,1.45
2023-04-13T18:07:34.213Z,2.00
2023-04-13T18:10:34.940Z,1.65
2023-04-13T18:13:35.838Z,1.40
2023-04-13T18:16:36.842Z,1.30
2023-04-13T18:19:38.409Z,1.33
2023-04-13T18:22:39.572Z,1.40
2023-04-13T18:25:40.532Z,1.30
2023-04-13T18:28:44.868Z,3.13
2023-04-13T18:31:45.854Z,2.03
2023-04-13T18:34:47.197Z,1.48
2023-04-13T18:37:48.202Z,1.30
2023-04-13T18:40:50.611Z,1.27
2023-04-13T18:43:51.832Z,1.35
2023-04-13T18:46:52.559Z,1.30
2023-04-13T18:49:54.061Z,1.10
2023-04-13T18:52:56.376Z,1.30
2023-04-13T18:55:59.086Z,1.10
2023-04-13T18:59:00.494Z,1.63
2023-04-13T19:02:01.539Z,1.30
2023-04-13T19:05:03.135Z,1.30
2023-04-13T19:08:07.461Z,1.50
2023-04-13T19:11:08.788Z,1.40
2023-04-13T19:14:10.070Z,1.70
2023-04-13T19:17:10.929Z,1.20
2023-04-13T19:20:12.180Z,1.48
2023-04-13T19:23:13.452Z,1.92
2023-04-13T19:26:14.237Z,1.50
2023-04-13T19:29:16.703Z,1.52
2023-04-13T19:32:17.638Z,1.67
2023-04-13T19:35:19.368Z,1.40
2023-04-13T19:38:20.364Z,2.20
2023-04-13T19:41:21.553Z,1.50
2023-04-13T19:44:22.696Z,1.60
2023-04-13T19:47:23.703Z,1.85
2023-04-13T19:50:24.979Z,1.52
2023-04-13T19:53:26.295Z,2.25
2023-04-13T19:56:30.321Z,1.83
2023-04-13T19:59:31.820Z,1.73
2023-04-13T20:02:33.206Z,1.63
2023-04-13T20:05:38.370Z,1.83
2023-04-13T20:08:43.079Z,2.20
2023-04-13T20:11:44.123Z,1.60
2023-04-13T20:14:46.536Z,1.98
2023-04-13T20:17:48.170Z,1.80
2023-04-13T20:20:50.015Z,2.20
2023-04-13T20:23:50.845Z,2.15
2023-04-13T20:26:51.758Z,2.55
2023-04-13T20:29:52.938Z,3.13
2023-04-13T20:32:53.740Z,3.13
2023-04-13T20:35:55.655Z,2.90
2023-04-13T20:38:59.789Z,3.10
2023-04-13T20:42:04.905Z,3.15
2023-04-13T20:45:06.509Z,3.25
2023-04-13T20:51:16.086Z,3.45
2023-04-13T20:54:17.601Z,3.75
2023-04-13T20:57:20.189Z,3.38
2023-04-13T21:00:23.718Z,4.30
2023-04-13T21:03:32.254Z,4.18
2023-04-13T21:06:35.324Z,4.43
2023-04-13T21:09:36.341Z,4.72
2023-04-13T21:12:37.430Z,5.90
2023-04-13T21:15:38.280Z,4.35
2023-04-13T21:18:41.789Z,4.65
2023-04-13T21:21:42.758Z,5.32
2023-04-13T21:24:43.600Z,4.90
2023-04-13T21:27:44.513Z,5.38
2023-04-13T21:30:45.664Z,4.20
2023-04-13T21:33:47.315Z,4.70
2023-04-13T21:39:52.255Z,4.20
2023-04-13T21:42:53.456Z,3.80
2023-04-13T21:45:55.580Z,4.35
2023-04-13T21:48:56.472Z,4.32
2023-04-13T21:51:57.800Z,4.13
2023-04-13T21:55:00.031Z,4.80
2023-04-13T21:58:01.206Z,4.63
2023-04-13T22:01:02.190Z,6.10
2023-04-13T22:04:03.525Z,7.28
2023-04-13T22:07:04.737Z,7.03
2023-04-13T22:10:06.400Z,6.78
2023-04-13T22:13:07.738Z,7.43
2023-04-13T22:16:09.217Z,8.40
2023-04-13T22:19:10.517Z,9.02
2023-04-13T22:22:11.395Z,8.32
2023-04-13T22:25:12.213Z,8.93
2023-04-13T22:28:13.381Z,9.50
2023-04-13T22:31:14.433Z,8.43
2023-04-13T22:34:15.845Z,8.15
2023-04-13T22:37:17.704Z,8.75
2023-04-13T22:40:19.092Z,8.20
2023-04-13T22:43:20.264Z,7.15
2023-04-13T22:46:21.712Z,7.57
2023-04-13T22:49:22.491Z,7.53
2023-04-13T22:52:23.425Z,7.03
2023-04-13T22:55:24.295Z,7.53
2023-04-13T22:58:25.171Z,8.07
2023-04-13T23:01:26.469Z,7.35
2023-04-13T23:04:27.458Z,9.18
2023-04-13T23:07:28.656Z,8.00
2023-04-13T23:10:31.940Z,7.28
2023-04-13T23:13:32.772Z,7.72
2023-04-13T23:16:34.684Z,8.27
2023-04-13T23:19:35.650Z,6.57
2023-04-13T23:22:37.563Z,6.55
2023-04-13T23:25:38.756Z,6.85
2023-04-13T23:28:40.064Z,6.70
2023-04-13T23:31:41.596Z,6.78
2023-04-13T23:34:42.946Z,5.78
2023-04-13T23:37:45.515Z,5.90
2023-04-13T23:40:47.007Z,5.55
2023-04-13T23:43:47.739Z,6.15
2023-04-13T23:46:48.893Z,4.78
2023-04-13T23:49:51.769Z,5.50
2023-04-13T23:52:52.828Z,5.47
2023-04-13T23:55:54.164Z,5.63
2023-04-13T23:58:55.100Z,6.07
